createdAt,value
2023-05-01T00:02:54.745Z,29.60
2023-05-01T00:07:57.765Z,32.50
2023-05-01T00:13:00.542Z,31.00
2023-05-01T00:18:04.804Z,30.20
2023-05-01T00:23:08.591Z,30.80
2023-05-01T00:28:11.462Z,30.60
2023-05-01T00:33:16.199Z,28.80
2023-05-01T00:38:18.972Z,33.25
2023-05-01T00:43:22.169Z,31.20
2023-05-01T00:48:27.306Z,27.40
2023-05-01T00:53:30.137Z,30.40
2023-05-01T00:58:32.905Z,30.40
2023-05-01T01:03:37.230Z,24.80
2023-05-01T01:08:43.052Z,31.00
2023-05-01T01:13:48.153Z,26.60
2023-05-01T01:18:55.447Z,25.20
2023-05-01T01:24:35.506Z,27.40
2023-05-01T01:29:59.776Z,23.80
2023-05-01T01:35:04.803Z,28.60
2023-05-01T01:40:10.103Z,27.40
2023-05-01T01:45:14.728Z,25.80
2023-05-01T01:50:18.824Z,24.40
2023-05-01T01:55:23.703Z,27.40
2023-05-01T02:00:26.462Z,27.40
2023-05-01T02:05:30.612Z,25.80
2023-05-01T02:10:33.923Z,25.00
2023-05-01T02:15:36.696Z,24.40
2023-05-01T02:20:41.028Z,22.20
2023-05-01T02:25:44.208Z,25.00
2023-05-01T02:30:47.220Z,25.40
2023-05-01T02:35:51.435Z,22.00
2023-05-01T02:40:56.905Z,25.80
2023-05-01T02:45:59.797Z,22.00
2023-05-01T02:51:04.521Z,20.20
2023-05-01T02:56:08.719Z,22.00
2023-05-01T03:01:12.220Z,24.00
2023-05-01T03:06:16.425Z,21.60
2023-05-01T03:11:19.194Z,23.00
2023-05-01T03:16:22.000Z,22.20
2023-05-01T03:21:26.658Z,20.60
2023-05-01T03:26:30.039Z,22.40
2023-05-01T03:31:33.048Z,22.20
2023-05-01T03:36:37.392Z,19.80
2023-05-01T03:41:40.646Z,19.40
2023-05-01T03:46:52.145Z,18.80
2023-05-01T03:52:01.234Z,22.40
2023-05-01T03:57:04.144Z,19.00
2023-05-01T04:02:07.103Z,20.80
2023-05-01T04:07:14.120Z,22.00
2023-05-01T04:12:17.212Z,19.00
2023-05-01T04:17:20.010Z,21.20
2023-05-01T04:22:24.517Z,19.00
2023-05-01T04:27:28.154Z,18.80
2023-05-01T04:32:30.974Z,19.40
2023-05-01T04:37:35.685Z,19.40
2023-05-01T04:42:39.451Z,19.20
2023-05-01T04:47:45.208Z,20.20
2023-05-01T04:52:49.476Z,18.60
2023-05-01T04:57:52.634Z,18.80
2023-05-01T05:02:56.262Z,19.00
2023-05-01T05:08:00.987Z,18.60
2023-05-01T05:13:15.638Z,14.40
2023-05-01T05:18:18.435Z,16.80
2023-05-01T05:23:23.014Z,19.40
2023-05-01T05:28:26.213Z,18.60
2023-05-01T05:33:29.170Z,19.20
2023-05-01T05:38:33.667Z,19.00
2023-05-01T05:43:37.243Z,19.80
2023-05-01T05:48:42.490Z,16.80
2023-05-01T05:53:47.295Z,18.20
2023-05-01T05:58:50.035Z,18.20
2023-05-01T06:03:53.152Z,16.40
2023-05-01T06:08:57.755Z,17.60
2023-05-01T06:14:00.966Z,16.00
2023-05-01T06:19:04.115Z,16.60
2023-05-01T06:24:09.101Z,17.80
2023-05-01T06:29:20.970Z,15.20
2023-05-01T06:34:23.779Z,16.20
2023-05-01T06:39:31.716Z,17.20
2023-05-01T06:44:34.664Z,15.00
2023-05-01T06:49:37.974Z,16.00
2023-05-01T06:54:42.351Z,16.00
2023-05-01T06:59:45.186Z,13.40
2023-05-01T07:04:47.970Z,35.50
2023-05-01T07:09:52.185Z,35.75
2023-05-01T07:14:55.058Z,35.75
2023-05-01T07:19:58.005Z,35.50
2023-05-01T07:25:03.450Z,29.75
2023-05-01T07:30:07.704Z,31.00
2023-05-01T07:35:11.223Z,30.00
2023-05-01T07:40:15.547Z,28.00
2023-05-01T07:45:18.568Z,29.40
2023-05-01T07:50:22.619Z,28.40
2023-05-01T07:55:26.851Z,27.00
2023-05-01T08:00:30.077Z,24.40
2023-05-01T08:05:32.892Z,28.75
2023-05-01T08:10:37.111Z,27.20
2023-05-01T08:15:42.732Z,27.25
2023-05-01T08:20:45.519Z,27.00
2023-05-01T08:25:51.570Z,25.75
2023-05-01T08:30:54.360Z,26.40
2023-05-01T08:35:57.137Z,26.60
2023-05-01T08:41:01.677Z,23.00
2023-05-01T08:46:04.957Z,25.80
2023-05-01T08:51:07.806Z,26.20
2023-05-01T08:56:13.654Z,24.00
2023-05-01T09:01:16.689Z,25.60
2023-05-01T09:06:19.558Z,24.80
2023-05-01T09:11:24.183Z,24.20
2023-05-01T09:16:27.084Z,23.80
2023-05-01T09:21:31.955Z,24.40
2023-05-01T09:26:38.417Z,26.00
2023-05-01T09:31:41.276Z,24.20
2023-05-01T09:36:44.107Z,24.00
2023-05-01T09:41:53.469Z,25.00
2023-05-01T09:46:56.470Z,24.60
2023-05-01T09:52:12.004Z,23.40
2023-05-01T09:57:16.210Z,23.20
2023-05-01T10:02:29.105Z,24.00
2023-05-01T10:07:32.076Z,24.00
2023-05-01T10:12:37.364Z,23.20
2023-05-01T10:17:40.579Z,28.60
2023-05-01T10:22:44.369Z,24.00
2023-05-01T10:27:49.150Z,36.00
2023-05-01T10:32:52.821Z,41.75
2023-05-01T10:37:59.662Z,43.00
2023-05-01T10:43:17.151Z,44.67
2023-05-01T10:48:55.097Z,47.00
2023-05-01T10:54:23.261Z,49.00
2023-05-01T10:59:27.407Z,44.33
2023-05-01T11:04:50.690Z,49.00
2023-05-01T11:09:57.489Z,36.75
2023-05-01T11:15:05.771Z,24.00
2023-05-01T11:20:09.103Z,24.20
2023-05-01T11:25:19.153Z,25.00
2023-05-01T11:30:23.365Z,22.20
2023-05-01T11:35:27.233Z,22.40
2023-05-01T11:40:30.832Z,25.00
2023-05-01T11:45:35.447Z,24.40
2023-05-01T11:50:39.413Z,23.20
2023-05-01T11:55:42.265Z,23.00
2023-05-01T12:00:47.016Z,24.00
2023-05-01T12:05:49.951Z,22.60
2023-05-01T12:10:55.898Z,21.40
2023-05-01T12:16:01.277Z,21.40
2023-05-01T12:21:04.178Z,24.20
2023-05-01T12:26:17.520Z,22.60
2023-05-01T12:31:21.806Z,22.40
2023-05-01T12:36:25.768Z,22.00
2023-05-01T12:41:36.694Z,23.80
2023-05-01T12:46:41.265Z,25.40
2023-05-01T12:51:47.760Z,22.80
2023-05-01T12:56:50.752Z,22.00
2023-05-01T13:02:01.622Z,35.50
2023-05-01T13:07:11.535Z,188.25
2023-05-01T13:12:14.354Z,172.00
2023-05-01T13:17:24.191Z,199.50
2023-05-01T13:22:32.278Z,280.75
2023-05-01T13:27:35.008Z,344.25
2023-05-01T13:32:40.389Z,364.75
2023-05-01T13:37:43.181Z,288.75
2023-05-01T13:42:46.167Z,271.50
2023-05-01T13:47:50.518Z,223.00
2023-05-01T13:52:53.463Z,210.50
2023-05-01T13:57:56.565Z,178.00
2023-05-01T14:03:00.907Z,166.33
2023-05-01T14:08:03.824Z,148.00
2023-05-01T14:13:06.805Z,135.75
2023-05-01T14:18:17.744Z,132.50
2023-05-01T14:23:23.024Z,132.50
2023-05-01T14:28:26.006Z,115.50
2023-05-01T14:33:30.217Z,104.50
2023-05-01T14:38:39.338Z,109.25
2023-05-01T14:43:42.388Z,107.25
2023-05-01T14:48:46.550Z,93.25
2023-05-01T14:53:49.304Z,88.50
2023-05-01T14:58:52.126Z,76.00
2023-05-01T15:03:56.483Z,76.50
2023-05-01T15:08:59.353Z,72.50
2023-05-01T15:14:02.511Z,69.75
2023-05-01T15:19:06.658Z,66.00
2023-05-01T15:24:10.305Z,65.00
2023-05-01T15:29:13.224Z,64.25
2023-05-01T15:34:17.462Z,61.75
2023-05-01T15:39:20.300Z,60.50
2023-05-01T15:44:23.054Z,58.75
2023-05-01T15:49:27.698Z,59.50
2023-05-01T15:54:30.635Z,57.00
2023-05-01T15:59:33.514Z,56.67
2023-05-01T16:04:40.473Z,53.33
2023-05-01T16:09:43.425Z,55.00
2023-05-01T16:14:46.213Z,55.67
2023-05-01T16:19:50.446Z,55.00
2023-05-01T16:24:53.424Z,56.00
2023-05-01T16:29:56.457Z,51.33
2023-05-01T16:35:01.538Z,52.33
2023-05-01T16:40:04.908Z,53.00
2023-05-01T16:45:09.511Z,53.33
2023-05-01T16:50:14.053Z,53.00
2023-05-01T16:55:17.551Z,49.67
2023-05-01T17:00:20.679Z,51.33
2023-05-01T17:05:24.900Z,51.67
2023-05-01T17:10:28.129Z,51.67
2023-05-01T17:15:30.884Z,50.00
2023-05-01T17:20:35.068Z,48.33
2023-05-01T17:25:37.871Z,46.67
2023-05-01T17:30:53.694Z,51.67
2023-05-01T17:36:04.948Z,47.33
2023-05-01T17:41:07.842Z,44.50
2023-05-01T17:46:10.818Z,47.50
2023-05-01T17:51:15.343Z,45.00
2023-05-01T17:56:18.675Z,43.00
2023-05-01T18:01:21.643Z,46.00
2023-05-01T18:06:25.972Z,44.00
2023-05-01T18:11:28.950Z,42.50
2023-05-01T18:16:32.471Z,43.00
2023-05-01T18:21:36.725Z,39.25
2023-05-01T18:26:39.514Z,41.50
2023-05-01T18:31:42.481Z,43.00
2023-05-01T18:36:52.026Z,40.75
2023-05-01T18:41:55.330Z,40.25
2023-05-01T18:46:58.286Z,39.00
2023-05-01T18:52:03.263Z,37.00
2023-05-01T18:57:06.604Z,39.75
2023-05-01T19:02:09.493Z,38.75
2023-05-01T19:07:13.774Z,39.25
2023-05-01T19:12:17.045Z,38.00
2023-05-01T19:17:19.825Z,39.00
2023-05-01T19:22:24.040Z,39.25
2023-05-01T19:27:27.138Z,36.75
2023-05-01T19:32:30.151Z,39.50
2023-05-01T19:37:34.425Z,38.00
2023-05-01T19:42:37.455Z,36.00
2023-05-01T19:47:40.297Z,36.00
2023-05-01T19:52:44.488Z,37.50
2023-05-01T19:57:47.442Z,36.75
2023-05-01T20:02:50.403Z,32.00
2023-05-01T20:07:55.162Z,35.00
2023-05-01T20:12:58.225Z,35.00
2023-05-01T20:18:01.293Z,34.50
2023-05-01T20:23:12.176Z,34.50
2023-05-01T20:28:15.615Z,33.00
2023-05-01T20:33:18.635Z,35.00
2023-05-01T20:38:23.281Z,33.25
2023-05-01T20:43:26.951Z,34.75
2023-05-01T20:48:29.802Z,35.75
2023-05-01T20:53:34.003Z,33.00
2023-05-01T20:58:36.935Z,29.40
2023-05-01T21:03:40.292Z,28.50
2023-05-01T21:08:44.776Z,29.00
2023-05-01T21:13:47.701Z,31.60
2023-05-01T21:18:50.547Z,29.00
2023-05-01T21:23:54.770Z,29.20
2023-05-01T21:28:58.686Z,30.00
2023-05-01T21:34:02.336Z,33.00
2023-05-01T21:39:06.734Z,29.40
2023-05-01T21:44:09.657Z,30.00
2023-05-01T21:49:12.680Z,26.80
2023-05-01T21:54:17.638Z,30.20
2023-05-01T21:59:21.328Z,29.80
2023-05-01T22:04:24.791Z,30.00
2023-05-01T22:09:28.886Z,29.60
2023-05-01T22:14:46.274Z,31.20
2023-05-01T22:19:50.121Z,25.80
2023-05-01T22:24:54.292Z,29.00
2023-05-01T22:29:57.506Z,26.20
2023-05-01T22:35:00.758Z,28.40
2023-05-01T22:40:05.804Z,27.20
2023-05-01T22:45:10.145Z,27.00
2023-05-01T22:50:13.013Z,28.80
2023-05-01T22:55:17.661Z,24.40
2023-05-01T23:00:22.112Z,26.40
2023-05-01T23:05:25.074Z,26.20
2023-05-01T23:10:30.361Z,28.80
2023-05-01T23:15:33.941Z,21.60
2023-05-01T23:20:39.927Z,24.40
2023-05-01T23:25:48.836Z,24.40
2023-05-01T23:30:55.006Z,25.40
2023-05-01T23:35:58.438Z,23.80
2023-05-01T23:41:02.632Z,24.80
2023-05-01T23:46:06.508Z,24.60
2023-05-01T23:51:09.271Z,25.20
2023-05-01T23:56:13.990Z,23.20
